LRTR

Timişoara Traian Vuia Airport

Timişoara, Romania
TAF LRTR 202300Z 2100/2124 08008KT CAVOK
Issued Valid From Valid To
Apr-20 @ 23:00 UTC
(5 hours ago)
Apr-21 @ 00:00 UTC
(4 hours ago)
Apr-22 @ 00:00 UTC
(in 20 hours)
Apr-21 @ 00:00 to Apr-22 @ 00:00
TAF LRTR 202300Z 2100/2124 08008KT CAVOK
Wind Visibility Clouds Conditions
80° at 8 knots 10,000+ meters
  • No significant clouds
TAF LRTR 202300Z 2100/2124 08008KT CAVOK
Issued Apr-20 @ 23:00 UTC
(5 hours ago)
Valid From Apr-21 @ 00:00 UTC
(4 hours ago)
Valid To Apr-22 @ 00:00 UTC
(in 20 hours)
Apr-21 @ 00:00 - Apr-22 @ 00:00
Wind Visibility
80° at 8 knots 10,000+ meters
Clouds
  • No significant clouds
Conditions